createdAt,value
2023-01-31T00:00:30.135Z,7.53
2023-01-31T00:03:15.395Z,7.05
2023-01-31T00:06:10.105Z,7.03
2023-01-31T00:08:56.134Z,6.80
2023-01-31T00:11:41.168Z,7.50
2023-01-31T00:14:26.213Z,7.60
2023-01-31T00:17:11.540Z,7.90
2023-01-31T00:19:56.822Z,7.07
2023-01-31T00:22:41.847Z,7.35
2023-01-31T00:25:27.154Z,7.35
2023-01-31T00:28:12.340Z,8.00
2023-01-31T00:30:58.646Z,7.30
2023-01-31T00:33:45.292Z,7.78
2023-01-31T00:36:32.902Z,8.13
2023-01-31T00:39:17.870Z,8.90
2023-01-31T00:42:03.266Z,8.77
2023-01-31T00:44:48.114Z,10.68
2023-01-31T00:47:33.256Z,9.88
2023-01-31T00:50:18.193Z,9.43
2023-01-31T00:53:03.861Z,9.63
2023-01-31T00:55:54.093Z,9.45
2023-01-31T01:01:29.233Z,9.98
2023-01-31T01:04:14.924Z,9.80
2023-01-31T01:06:59.935Z,9.20
2023-01-31T01:09:45.240Z,11.13
2023-01-31T01:12:30.173Z,10.60
2023-01-31T01:15:15.463Z,10.90
2023-01-31T01:18:00.822Z,10.75
2023-01-31T01:20:45.860Z,10.88
2023-01-31T01:23:30.863Z,10.60
2023-01-31T01:26:22.313Z,10.75
2023-01-31T01:29:07.997Z,10.75
2023-01-31T01:31:53.134Z,11.00
2023-01-31T01:34:38.401Z,9.98
2023-01-31T01:37:24.210Z,9.38
2023-01-31T01:40:10.225Z,9.57
2023-01-31T01:42:55.345Z,9.13
2023-01-31T01:45:40.484Z,9.85
2023-01-31T01:48:27.721Z,9.18
2023-01-31T01:51:15.959Z,9.50
2023-01-31T01:54:05.950Z,10.13
2023-01-31T01:59:45.825Z,8.95
2023-01-31T02:02:31.040Z,9.90
2023-01-31T02:05:24.430Z,9.68
2023-01-31T02:08:10.398Z,8.98
2023-01-31T02:11:17.648Z,9.23
2023-01-31T02:14:09.564Z,8.60
2023-01-31T02:16:55.535Z,8.23
2023-01-31T02:20:01.262Z,9.00
2023-01-31T02:23:20.530Z,8.98
2023-01-31T02:26:28.026Z,9.32
2023-01-31T02:29:28.060Z,8.35
2023-01-31T02:32:32.087Z,9.05
2023-01-31T02:35:38.608Z,8.40
2023-01-31T02:38:29.897Z,9.73
2023-01-31T02:41:40.472Z,9.43
2023-01-31T02:44:50.128Z,9.80
2023-01-31T02:47:47.366Z,8.85
2023-01-31T02:50:45.185Z,8.43
2023-01-31T02:53:37.319Z,9.07
2023-01-31T02:56:27.349Z,9.20
2023-01-31T02:59:18.619Z,10.00
2023-01-31T03:02:04.776Z,9.55
2023-01-31T03:04:49.970Z,8.70
2023-01-31T03:07:38.381Z,10.30
2023-01-31T03:11:03.093Z,9.60
2023-01-31T03:14:15.592Z,8.80
2023-01-31T03:17:33.284Z,9.25
2023-01-31T03:20:36.466Z,9.45
2023-01-31T03:23:26.776Z,10.10
2023-01-31T03:26:12.999Z,9.52
2023-01-31T03:29:01.574Z,9.13
2023-01-31T03:32:04.452Z,8.80
2023-01-31T03:34:49.914Z,7.90
2023-01-31T03:37:50.599Z,7.60
2023-01-31T03:40:49.667Z,7.97
2023-01-31T03:44:04.318Z,7.78
2023-01-31T03:47:13.146Z,8.49
2023-01-31T03:50:03.332Z,7.30
2023-01-31T03:53:09.341Z,8.30
2023-01-31T03:56:01.084Z,7.60
2023-01-31T03:58:51.325Z,7.70
2023-01-31T04:01:41.855Z,7.05
2023-01-31T04:04:40.852Z,7.60
2023-01-31T04:07:26.636Z,7.70
2023-01-31T04:10:16.756Z,6.72
2023-01-31T04:15:46.890Z,4.25
2023-01-31T04:18:32.127Z,3.55
2023-01-31T04:21:17.343Z,3.08
2023-01-31T04:24:02.501Z,3.65
2023-01-31T04:26:48.219Z,2.40
2023-01-31T04:29:33.662Z,2.80
2023-01-31T04:32:18.569Z,2.42
2023-01-31T04:35:04.181Z,3.17
2023-01-31T04:37:48.973Z,3.38
2023-01-31T04:40:33.972Z,2.63
2023-01-31T04:43:19.267Z,3.30
2023-01-31T04:46:04.733Z,3.03
2023-01-31T04:48:49.965Z,2.60
2023-01-31T04:51:35.477Z,3.15
2023-01-31T04:54:20.664Z,3.05
2023-01-31T04:57:05.858Z,3.20
2023-01-31T04:59:52.106Z,2.50
2023-01-31T05:02:37.189Z,3.38
2023-01-31T05:05:22.610Z,2.80
2023-01-31T05:08:07.782Z,3.58
2023-01-31T05:11:03.021Z,3.47
2023-01-31T05:13:49.386Z,2.83
2023-01-31T05:16:34.507Z,2.70
2023-01-31T05:19:19.645Z,2.65
2023-01-31T05:22:05.183Z,2.83
2023-01-31T05:24:50.835Z,2.15
2023-01-31T05:27:36.073Z,2.95
2023-01-31T05:30:24.148Z,2.50
2023-01-31T05:33:09.299Z,3.40
2023-01-31T05:35:54.635Z,2.88
2023-01-31T05:38:39.902Z,2.13
2023-01-31T05:41:24.873Z,2.30
2023-01-31T05:44:10.909Z,2.90
2023-01-31T05:46:55.830Z,2.17
2023-01-31T05:49:41.055Z,2.45
2023-01-31T05:52:26.660Z,2.28
2023-01-31T05:55:11.696Z,3.25
2023-01-31T05:57:57.448Z,2.65
2023-01-31T06:00:42.398Z,3.10
2023-01-31T06:03:27.530Z,2.35
2023-01-31T06:06:13.842Z,2.70
2023-01-31T06:08:59.233Z,2.55
2023-01-31T06:11:44.689Z,2.85
2023-01-31T06:14:29.921Z,2.50
2023-01-31T06:17:15.324Z,2.42
2023-01-31T06:20:00.338Z,2.85
2023-01-31T06:22:45.563Z,2.75
2023-01-31T06:25:31.964Z,2.85
2023-01-31T06:28:18.089Z,2.33
2023-01-31T06:31:11.307Z,2.33
2023-01-31T06:33:56.464Z,2.55
2023-01-31T06:36:41.806Z,2.83
2023-01-31T06:39:27.011Z,2.30
2023-01-31T06:42:11.959Z,2.60
2023-01-31T06:44:57.387Z,2.78
2023-01-31T06:47:45.260Z,2.50
2023-01-31T06:50:30.355Z,2.13
2023-01-31T06:53:15.723Z,2.33
2023-01-31T06:56:00.805Z,2.13
2023-01-31T06:58:46.102Z,2.70
2023-01-31T07:01:31.563Z,2.30
2023-01-31T07:04:16.386Z,2.13
2023-01-31T07:07:01.788Z,1.98
2023-01-31T07:09:47.017Z,2.58
2023-01-31T07:12:32.505Z,1.92
2023-01-31T07:15:18.312Z,1.98
2023-01-31T07:18:03.431Z,2.38
2023-01-31T07:20:50.072Z,2.33
2023-01-31T07:23:35.225Z,2.28
2023-01-31T07:26:20.557Z,1.98
2023-01-31T07:29:05.691Z,2.05
2023-01-31T07:31:51.448Z,1.40
2023-01-31T07:34:36.625Z,2.08
2023-01-31T07:37:21.829Z,1.90
2023-01-31T07:40:07.657Z,2.15
2023-01-31T07:42:58.026Z,2.17
2023-01-31T07:45:43.020Z,2.13
2023-01-31T07:48:28.207Z,1.95
2023-01-31T07:51:13.560Z,2.00
2023-01-31T07:53:58.756Z,2.90
2023-01-31T07:56:44.118Z,2.33
2023-01-31T07:59:29.773Z,2.13
2023-01-31T08:02:35.832Z,1.58
2023-01-31T08:05:21.709Z,2.47
2023-01-31T08:08:12.943Z,2.33
2023-01-31T08:10:58.036Z,2.13
2023-01-31T08:13:43.307Z,2.53
2023-01-31T08:16:29.300Z,2.33
2023-01-31T08:19:14.369Z,2.20
2023-01-31T08:21:59.216Z,2.00
2023-01-31T08:24:44.463Z,2.50
2023-01-31T08:27:30.339Z,2.35
2023-01-31T08:30:15.469Z,1.90
2023-01-31T08:33:02.309Z,2.15
2023-01-31T08:35:47.566Z,1.90
2023-01-31T08:38:32.719Z,1.90
2023-01-31T08:41:19.622Z,2.05
2023-01-31T08:44:06.163Z,2.78
2023-01-31T08:46:51.288Z,1.98
2023-01-31T08:49:37.047Z,2.10
2023-01-31T08:52:21.954Z,2.33
2023-01-31T08:55:09.266Z,1.98
2023-01-31T08:57:59.884Z,2.30
2023-01-31T09:00:45.569Z,2.97
2023-01-31T09:03:31.065Z,2.95
2023-01-31T09:06:19.340Z,1.90
2023-01-31T09:09:04.608Z,2.63
2023-01-31T09:11:49.552Z,2.33
2023-01-31T09:14:34.563Z,2.67
2023-01-31T09:17:19.508Z,2.03
2023-01-31T09:20:06.687Z,2.40
2023-01-31T09:22:51.643Z,2.20
2023-01-31T09:25:45.621Z,2.10
2023-01-31T09:28:33.192Z,2.33
2023-01-31T09:31:20.770Z,2.95
2023-01-31T09:34:06.295Z,2.05
2023-01-31T09:36:51.463Z,2.22
2023-01-31T09:39:36.776Z,2.20
2023-01-31T09:42:27.552Z,2.67
2023-01-31T09:45:29.739Z,1.95
2023-01-31T09:48:22.633Z,2.08
2023-01-31T09:51:13.009Z,2.42
2023-01-31T09:56:54.589Z,2.20
2023-01-31T09:59:46.492Z,2.00
2023-01-31T10:02:42.549Z,2.05
2023-01-31T10:05:49.823Z,2.25
2023-01-31T10:08:53.127Z,1.92
2023-01-31T10:11:47.389Z,1.92
2023-01-31T10:14:38.657Z,2.60
2023-01-31T10:17:33.783Z,2.17
2023-01-31T10:20:40.915Z,2.58
2023-01-31T10:23:33.949Z,2.28
2023-01-31T10:26:36.922Z,2.42
2023-01-31T10:29:34.261Z,1.77
2023-01-31T10:32:31.844Z,2.10
2023-01-31T10:35:31.697Z,2.28
2023-01-31T10:38:30.205Z,2.63
2023-01-31T10:41:25.691Z,2.67
2023-01-31T10:44:22.045Z,2.70
2023-01-31T10:47:18.587Z,2.65
2023-01-31T10:50:42.168Z,2.35
2023-01-31T10:53:52.954Z,2.25
2023-01-31T10:56:42.896Z,2.10
2023-01-31T11:02:23.092Z,2.15
2023-01-31T11:05:18.731Z,3.20
2023-01-31T11:08:20.890Z,3.50
2023-01-31T11:11:11.871Z,3.78
2023-01-31T11:14:01.410Z,2.95
2023-01-31T11:16:48.576Z,3.53
2023-01-31T11:19:39.109Z,4.20
2023-01-31T11:22:31.409Z,4.35
2023-01-31T11:25:25.694Z,2.78
2023-01-31T11:28:22.331Z,2.40
2023-01-31T11:31:19.415Z,2.55
2023-01-31T11:34:17.719Z,2.60
2023-01-31T11:37:14.661Z,2.35
2023-01-31T11:40:03.648Z,2.97
2023-01-31T11:42:55.762Z,2.43
2023-01-31T11:45:45.626Z,2.05
2023-01-31T11:48:41.858Z,2.63
2023-01-31T11:51:31.713Z,2.25
2023-01-31T11:54:23.680Z,2.35
2023-01-31T11:57:24.842Z,2.92
2023-01-31T12:00:25.375Z,2.42
2023-01-31T12:03:15.985Z,2.40
2023-01-31T12:06:06.051Z,2.53
2023-01-31T12:11:51.995Z,2.65
2023-01-31T12:14:42.216Z,2.10
2023-01-31T12:17:30.835Z,2.40
2023-01-31T12:20:28.649Z,2.58
2023-01-31T12:23:20.536Z,1.90
2023-01-31T12:26:17.113Z,2.47
2023-01-31T12:29:42.363Z,2.10
2023-01-31T12:32:46.224Z,2.10
2023-01-31T12:36:03.610Z,1.92
2023-01-31T12:38:48.590Z,1.83
2023-01-31T12:41:36.465Z,2.30
2023-01-31T12:44:37.267Z,2.10
2023-01-31T12:47:46.304Z,2.22
2023-01-31T12:50:55.056Z,1.77
2023-01-31T12:53:49.156Z,1.50
2023-01-31T12:56:49.371Z,1.98
2023-01-31T12:59:49.440Z,1.63
2023-01-31T13:02:43.627Z,2.03
2023-01-31T13:05:37.326Z,1.58
2023-01-31T13:08:27.209Z,1.92
2023-01-31T13:11:20.480Z,1.50
2023-01-31T13:14:11.893Z,1.63
2023-01-31T13:17:01.331Z,2.10
2023-01-31T13:19:50.628Z,1.92
2023-01-31T13:22:46.651Z,2.08
2023-01-31T13:25:39.758Z,1.95
2023-01-31T13:28:37.867Z,1.70
2023-01-31T13:31:33.962Z,1.90
2023-01-31T13:34:34.619Z,1.80
2023-01-31T13:37:23.278Z,1.50
2023-01-31T13:40:19.631Z,1.50
2023-01-31T13:43:13.729Z,1.55
2023-01-31T13:46:05.417Z,1.58
2023-01-31T13:48:57.714Z,1.60
2023-01-31T13:51:58.666Z,2.42
2023-01-31T13:54:49.603Z,1.92
2023-01-31T13:57:46.493Z,1.55
2023-01-31T14:00:44.244Z,1.25
2023-01-31T14:03:29.473Z,1.40
2023-01-31T14:06:14.564Z,1.25
2023-01-31T14:08:59.610Z,1.13
2023-01-31T14:11:44.938Z,1.50
2023-01-31T14:14:37.283Z,1.33
2023-01-31T14:17:22.146Z,1.20
2023-01-31T14:20:25.864Z,1.42
2023-01-31T14:23:31.625Z,1.17
2023-01-31T14:26:32.726Z,1.20
2023-01-31T14:29:27.291Z,1.42
2023-01-31T14:32:24.229Z,1.52
2023-01-31T14:35:12.104Z,1.52
2023-01-31T14:38:27.663Z,1.77
2023-01-31T14:41:25.054Z,1.38
2023-01-31T14:44:09.853Z,1.33
2023-01-31T14:47:25.918Z,1.27
2023-01-31T14:50:29.075Z,1.40
2023-01-31T14:53:49.774Z,1.40
2023-01-31T14:56:56.486Z,1.45
2023-01-31T14:59:53.881Z,1.65
2023-01-31T15:03:01.611Z,1.85
2023-01-31T15:06:08.462Z,1.90
2023-01-31T15:09:15.532Z,2.15
2023-01-31T15:12:01.257Z,1.70
2023-01-31T15:14:49.146Z,1.65
2023-01-31T15:17:39.273Z,1.33
2023-01-31T15:20:36.866Z,1.83
2023-01-31T15:23:31.643Z,1.77
2023-01-31T15:26:18.903Z,1.63
2023-01-31T15:29:04.976Z,1.40
2023-01-31T15:31:54.796Z,1.33
2023-01-31T15:37:35.184Z,1.27
2023-01-31T15:40:24.022Z,1.80
2023-01-31T15:43:23.707Z,1.53
2023-01-31T15:46:21.711Z,1.60
2023-01-31T15:49:38.583Z,1.30
2023-01-31T15:52:25.346Z,1.90
2023-01-31T15:55:14.663Z,1.70
2023-01-31T15:58:03.009Z,2.30
2023-01-31T16:00:56.623Z,2.15
2023-01-31T16:03:43.436Z,2.08
2023-01-31T16:06:36.565Z,2.40
2023-01-31T16:09:29.627Z,2.25
2023-01-31T16:12:16.060Z,2.33
2023-01-31T16:15:06.110Z,2.45
2023-01-31T16:17:53.341Z,2.80
2023-01-31T16:21:15.886Z,2.80
2023-01-31T16:24:03.926Z,2.65
2023-01-31T16:27:05.525Z,2.50
2023-01-31T16:29:58.985Z,3.15
2023-01-31T16:32:46.485Z,2.65
2023-01-31T16:35:31.525Z,2.83
2023-01-31T16:38:21.516Z,3.75
2023-01-31T16:43:58.085Z,2.70
2023-01-31T16:46:45.941Z,3.30
2023-01-31T16:49:35.543Z,3.67
2023-01-31T16:52:29.650Z,4.22
2023-01-31T16:55:17.686Z,4.00
2023-01-31T16:58:02.942Z,3.92
2023-01-31T17:00:48.688Z,3.22
2023-01-31T17:03:36.052Z,5.03
2023-01-31T17:06:22.351Z,4.10
2023-01-31T17:09:09.727Z,4.15
2023-01-31T17:11:56.259Z,3.28
2023-01-31T17:14:41.436Z,5.45
2023-01-31T17:17:34.947Z,4.00
2023-01-31T17:20:21.706Z,4.68
2023-01-31T17:23:07.047Z,4.40
2023-01-31T17:25:52.234Z,4.00
2023-01-31T17:28:37.356Z,5.38
2023-01-31T17:31:23.739Z,5.15
2023-01-31T17:34:13.919Z,3.63
2023-01-31T17:36:59.191Z,4.15
2023-01-31T17:39:44.304Z,4.28
2023-01-31T17:42:29.610Z,4.63
2023-01-31T17:45:18.889Z,4.75
2023-01-31T17:48:06.132Z,4.38
2023-01-31T17:50:53.534Z,3.88
2023-01-31T17:53:47.959Z,4.45
2023-01-31T17:56:34.610Z,4.10
2023-01-31T17:59:26.938Z,4.05
2023-01-31T18:02:12.588Z,4.07
2023-01-31T18:04:57.979Z,4.25
2023-01-31T18:07:43.351Z,4.35
2023-01-31T18:10:28.822Z,4.47
2023-01-31T18:13:13.631Z,6.65
2023-01-31T18:16:07.297Z,4.70
2023-01-31T18:18:53.344Z,4.45
2023-01-31T18:21:43.901Z,3.70
2023-01-31T18:24:32.170Z,4.18
2023-01-31T18:27:17.362Z,3.53
2023-01-31T18:30:02.671Z,4.25
2023-01-31T18:32:47.762Z,4.07
2023-01-31T18:35:33.044Z,4.97
2023-01-31T18:38:18.212Z,4.65
2023-01-31T18:41:06.595Z,4.05
2023-01-31T18:43:51.673Z,3.90
2023-01-31T18:46:36.731Z,3.60
2023-01-31T18:49:22.048Z,3.85
2023-01-31T18:52:08.413Z,3.65
2023-01-31T18:54:54.235Z,5.18
2023-01-31T18:57:39.162Z,4.78
2023-01-31T19:00:24.502Z,4.60
2023-01-31T19:03:09.767Z,4.10
2023-01-31T19:05:54.954Z,4.55
2023-01-31T19:08:40.811Z,4.65
2023-01-31T19:11:28.370Z,4.97
2023-01-31T19:14:14.198Z,4.68
2023-01-31T19:16:59.538Z,6.07
2023-01-31T19:19:44.611Z,5.05
2023-01-31T19:22:29.547Z,4.22
2023-01-31T19:25:14.871Z,4.75
2023-01-31T19:28:01.041Z,3.75
2023-01-31T19:30:46.392Z,4.65
2023-01-31T19:33:31.429Z,4.30
2023-01-31T19:36:21.683Z,4.38
2023-01-31T19:39:10.562Z,4.15
2023-01-31T19:41:55.642Z,4.55
2023-01-31T19:44:40.503Z,3.80
2023-01-31T19:47:25.841Z,3.70
2023-01-31T19:50:11.434Z,3.15
2023-01-31T19:52:56.707Z,3.85
2023-01-31T19:55:41.924Z,4.15
2023-01-31T19:58:31.263Z,3.80
2023-01-31T20:01:17.107Z,3.78
2023-01-31T20:04:02.393Z,3.53
2023-01-31T20:06:48.037Z,4.13
2023-01-31T20:09:33.313Z,3.58
2023-01-31T20:12:18.493Z,3.97
2023-01-31T20:15:05.892Z,4.20
2023-01-31T20:17:51.269Z,4.38
2023-01-31T20:20:36.267Z,5.40
2023-01-31T20:23:21.610Z,4.13
2023-01-31T20:26:07.212Z,4.50
2023-01-31T20:28:52.455Z,4.40
2023-01-31T20:31:38.311Z,5.03
2023-01-31T20:34:23.462Z,4.93
2023-01-31T20:37:09.086Z,4.80
2023-01-31T20:39:54.339Z,5.05
2023-01-31T20:42:39.525Z,4.72
2023-01-31T20:45:28.388Z,4.90
2023-01-31T20:48:14.063Z,5.25
2023-01-31T20:50:59.874Z,4.57
2023-01-31T20:53:45.354Z,4.40
2023-01-31T20:56:30.514Z,4.88
2023-01-31T20:59:15.561Z,4.35
2023-01-31T21:02:00.689Z,4.68
2023-01-31T21:04:46.020Z,4.05
2023-01-31T21:07:31.102Z,4.45
2023-01-31T21:10:16.249Z,4.38
2023-01-31T21:13:01.551Z,4.95
2023-01-31T21:15:55.039Z,4.15
2023-01-31T21:18:42.845Z,4.80
2023-01-31T21:21:28.045Z,4.60
2023-01-31T21:24:13.488Z,4.57
2023-01-31T21:26:58.898Z,4.05
2023-01-31T21:29:44.433Z,3.85
2023-01-31T21:32:29.331Z,3.80
2023-01-31T21:35:14.708Z,3.78
2023-01-31T21:37:59.802Z,3.70
2023-01-31T21:40:45.007Z,4.25
2023-01-31T21:43:30.638Z,3.95
2023-01-31T21:46:15.946Z,5.18
2023-01-31T21:49:01.459Z,4.25
2023-01-31T21:51:46.679Z,4.28
2023-01-31T21:54:32.438Z,3.90
2023-01-31T21:57:17.469Z,4.00
2023-01-31T22:00:02.490Z,4.25
2023-01-31T22:02:51.743Z,4.43
2023-01-31T22:05:36.775Z,4.78
2023-01-31T22:08:21.878Z,4.43
2023-01-31T22:11:10.281Z,4.18
2023-01-31T22:13:56.283Z,5.38
2023-01-31T22:16:42.316Z,4.40
2023-01-31T22:19:27.321Z,4.55
2023-01-31T22:22:12.346Z,4.45
2023-01-31T22:24:57.306Z,4.18
2023-01-31T22:27:42.434Z,4.43
2023-01-31T22:30:27.701Z,4.70
2023-01-31T22:33:13.327Z,4.80
2023-01-31T22:35:58.402Z,4.93
2023-01-31T22:38:45.283Z,4.80
2023-01-31T22:41:30.501Z,4.55
2023-01-31T22:44:15.591Z,4.05
2023-01-31T22:47:00.970Z,4.05
2023-01-31T22:49:46.259Z,4.55
2023-01-31T22:52:31.369Z,4.65
2023-01-31T22:55:16.389Z,4.85
2023-01-31T22:58:01.678Z,4.63
2023-01-31T23:00:47.724Z,4.03
2023-01-31T23:03:32.808Z,4.18
2023-01-31T23:06:18.253Z,4.07
2023-01-31T23:09:03.613Z,4.47
2023-01-31T23:11:48.865Z,4.43
2023-01-31T23:14:34.096Z,4.07
2023-01-31T23:17:37.580Z,4.47
2023-01-31T23:20:23.391Z,4.13
2023-01-31T23:23:08.523Z,5.28
2023-01-31T23:25:53.475Z,5.03
2023-01-31T23:28:38.727Z,5.07
2023-01-31T23:31:23.781Z,4.15
2023-01-31T23:34:08.787Z,4.32
2023-01-31T23:36:54.335Z,4.28
2023-01-31T23:39:39.652Z,4.85
2023-01-31T23:42:25.097Z,4.18
2023-01-31T23:45:10.706Z,4.05
2023-01-31T23:47:56.139Z,4.60
2023-01-31T23:50:41.380Z,4.28
2023-01-31T23:53:28.077Z,3.72
2023-01-31T23:56:13.194Z,4.55
2023-01-31T23:58:58.376Z,4.32
